Cape Lisburne LRRS Airport Cape Lisburne US
ICAO: PALU
IATA:
Category: Medium
Scheduled Services:

Elevation: 16 ft
TransAlt. 18000 ft.

Airport Communications:
ANCHORAGE CNTR:119.65
KOTZEBUE RDO:122.3
CTAF/UNICOM:126.2

PALU Zoom In..

Runways:

(A) RW 08 length 4805 ft width 135 ft
---- / hdg 84

(B) RW 26 length 4805 ft width 135 ft
---- / hdg 264

Location; PALU
Day. 20 / Time. 10.24 Zulu
* Altimeter: 30.00
* Temperature: -07° c. -19.4°f.
* Wind from: 040° Speed 13 kn.
Dewpoint: -09° c.
Visibility: 10 Statute Miles.
Clouds: Overcast 1400 ft.
Conditions: Light Snow.

PALU 201024Z AUTO 04013KT 10SM -SN OVC014 M07/M09 A3000 RMK AO2 SLP159 $


Wind From 040°
Speed 13 kn.

  YouTube Music Video
 
jpsmedia.com for Web Design  worldairports.se 2018   terms of use